Flight Track Log - Related Links

Times and Time Zones

All times are in EDT time to prevent confusion due to time zone crossing. See the N61275 flight status page for this flight to view local times or setup timezone preferences in your user account.

Time Position Orientation Groundspeed Altitude Reporting Facility
EDT Latitude Longitude Course Direction KTS MPH feet Rate Location/Type
Mon 04:18:41 AM 30.0781 -89.9783 58° Northeast 100 115 1,600  Level Houston Center
Mon 04:19:47 AM 30.0939 -89.9489 58° Northeast 98 113 2,200 567 Climbing Houston Center
Mon 04:20:48 AM 30.1117 -89.9167 57° Northeast 105 121 2,800 545 Climbing Houston Center
Mon 04:21:48 AM 30.1297 -89.8894 53° Northeast 109 125 3,300 545 Climbing Houston Center
Mon 04:22:49 AM 30.1475 -89.8622 53° Northeast 114 131 3,900 503 Climbing Houston Center
Mon 04:24:11 AM 30.1714 -89.8297 50° Northeast 109 125 4,500 503 Climbing Houston Center
Mon 04:25:12 AM 30.1911 -89.8025 50° Northeast 111 128 5,100 645 Climbing Houston Center
Mon 04:26:12 AM 30.2133 -89.7675 54° Northeast 113 130 5,800 600 Climbing Houston Center
Mon 04:27:12 AM 30.2314 -89.7381 55° Northeast 113 130 6,300 550 Climbing Houston Center
Mon 04:28:12 AM 30.2489 -89.7081 56° Northeast 114 131 6,900 500 Climbing Houston Center
Mon 04:29:12 AM 30.2700 -89.6808 48° Northeast 115 132 7,300 300 Climbing Houston Center
Mon 04:30:12 AM 30.2936 -89.6506 48° Northeast 124 143 7,500 149 Climbing Houston Center
Mon 04:31:13 AM 30.3147 -89.6078 60° Northeast 147 169 7,600 -50 Climbing Houston Center
Mon 04:32:13 AM 30.3378 -89.5642 59° Northeast 157 181 7,400 -50 Descending Houston Center
Mon 04:33:13 AM 30.3586 -89.5164 63° Northeast 163 188 7,500  Climbing Houston Center
Mon 04:34:13 AM 30.3806 -89.4703 61° Northeast 165 190 7,400 -50 Descending Houston Center
Mon 04:35:13 AM 30.4033 -89.4244 60° Northeast 166 191 7,400 50 Level Houston Center
Mon 04:36:13 AM 30.4281 -89.3789 58° Northeast 167 192 7,500 50 Climbing Houston Center
Mon 04:37:13 AM 30.4556 -89.3369 53° Northeast 165 190 7,500 50 Level Houston Center
Mon 04:38:14 AM 30.4819 -89.2933 55° Northeast 165 190 7,600 50 Climbing Houston Center
Mon 04:39:14 AM 30.5136 -89.2564 45° Northeast 162 186 7,600  Level Houston Center
Mon 04:40:14 AM 30.5353 -89.2081 62° Northeast 167 192 7,600  Level Houston Center
Mon 04:41:14 AM 30.5628 -89.1636 54° Northeast 169 194 7,600 -50 Level Houston Center
Mon 04:42:14 AM 30.5917 -89.1194 53° Northeast 171 197 7,500 -100 Descending Houston Center
Mon 04:43:14 AM 30.6225 -89.0792 48° Northeast 168 193 7,400 -50 Descending Houston Center
Mon 04:44:14 AM 30.6533 -89.0381 49° Northeast 169 194 7,400 -50 Level Houston Center
Mon 04:45:15 AM 30.6847 -89.0008 46° Northeast 164 189 7,300  Descending Houston Center
Mon 04:46:15 AM 30.7167 -88.9619 46° Northeast 166 191 7,400 100 Climbing Houston Center
Mon 04:47:15 AM 30.7417 -88.9125 60° Northeast 164 189 7,500 50 Climbing Houston Center
Mon 04:48:15 AM 30.7608 -88.8647 65° Northeast 164 189 7,500  Level Houston Center
Mon 04:49:15 AM 30.7908 -88.8256 48° Northeast 162 186 7,500  Level Houston Center
Mon 04:50:15 AM 30.8211 -88.7856 49° Northeast 163 188 7,500 50 Level Houston Center
Mon 04:51:15 AM 30.8386 -88.7372 67° East 163 188 7,600 50 Climbing Houston Center
Mon 04:52:15 AM 30.8625 -88.6914 59° Northeast 163 188 7,600  Level Houston Center
Mon 04:53:16 AM 30.8886 -88.6464 56° Northeast 167 192 7,600 -50 Level Houston Center
Mon 04:54:16 AM 30.9169 -88.6036 52° Northeast 168 193 7,500 -50 Descending Houston Center
Mon 04:55:16 AM 30.9411 -88.5583 58° Northeast 166 191 7,500  Level Houston Center
Mon 04:56:16 AM 30.9689 -88.5153 53° Northeast 166 191 7,500  Level Houston Center
Mon 04:57:16 AM 31.0003 -88.4742 48° Northeast 169 194 7,500 50 Level Houston Center
Mon 04:58:16 AM 31.0283 -88.4322 52° Northeast 166 191 7,600  Climbing Houston Center
Mon 04:59:16 AM 31.0539 -88.3869 57° Northeast 167 192 7,500 -50 Descending Houston Center
Mon 05:00:16 AM 31.0792 -88.3417 57° Northeast 169 194 7,500 -50 Level Houston Center
Mon 05:01:17 AM 31.1186 -88.3147 30° Northeast 168 193 7,400 -50 Descending Houston Center
Mon 05:02:17 AM 31.1414 -88.2664 61° Northeast 168 193 7,400  Level Houston Center
Mon 05:03:17 AM 31.1572 -88.2264 65° Northeast 168 193 7,400  Level Houston Center
Mon 05:04:17 AM 31.1728 -88.1742 71° East 170 196 7,400 -50 Level Houston Center
Mon 05:05:17 AM 31.1933 -88.1272 63° Northeast 165 190 7,300 -50 Descending Houston Center
Mon 05:06:17 AM 31.2208 -88.0819 55° Northeast 170 196 7,300  Level Houston Center
Mon 05:07:17 AM 31.2478 -88.0389 54° Northeast 166 191 7,300 50 Level Houston Center
Mon 05:08:18 AM 31.2753 -87.9944 54° Northeast 166 191 7,400 50 Climbing Houston Center
Mon 05:09:18 AM 31.3042 -87.9511 52° Northeast 168 193 7,400  Level Houston Center
Mon 05:10:18 AM 31.3206 -87.8989 70° East 170 196 7,400  Level Houston Center
Mon 05:11:18 AM 31.3392 -87.8494 66° East 168 193 7,400  Level Houston Center
Mon 05:12:18 AM 31.3525 -87.7975 73° East 167 192 7,400  Level Houston Center
Mon 05:13:18 AM 31.3656 -87.7436 74° East 169 194 7,400 50 Level Houston Center
Mon 05:14:18 AM 31.3794 -87.6906 73° East 171 197 7,500  Climbing Houston Center
Mon 05:15:18 AM 31.3994 -87.6392 65° Northeast 172 198 7,400 -50 Descending Houston Center
Mon 05:16:19 AM 31.4194 -87.5889 65° Northeast 172 198 7,400  Level Houston Center
Mon 05:17:19 AM 31.4406 -87.5378 64° Northeast 173 199 7,400  Level Houston Center
Mon 05:18:19 AM 31.4714 -87.4828 57° Northeast 171 197 7,400  Level Houston Center
Mon 05:19:19 AM 31.5008 -87.4397 51° Northeast 169 194 7,400 -50 Level Houston Center
Mon 05:20:19 AM 31.5242 -87.3908 61° Northeast 170 196 7,300  Descending Houston Center
Mon 05:21:19 AM 31.5511 -87.3442 56° Northeast 171 197 7,400  Climbing Houston Center
Mon 05:22:20 AM 31.5822 -87.3022 49° Northeast 172 198 7,300  Descending Houston Center
Mon 05:23:20 AM 31.6033 -87.2553 62° Northeast 184 212 7,400 50 Climbing Houston Center
Mon 05:24:20 AM 31.6283 -87.2106 57° Northeast 168 193 7,400  Level Houston Center
Mon 05:25:04 AM 31.6481 -87.1881 44° Northeast 163 188 7,400  Level Atlanta Center
Mon 05:26:04 AM 31.6764 -87.1453 52° Northeast 163 188 7,400  Level Atlanta Center
Mon 05:27:04 AM 31.6986 -87.0875 66° East 163 188 7,400  Level Atlanta Center
Mon 05:28:04 AM 31.7247 -87.0444 55° Northeast 163 188 7,400 50 Level Atlanta Center
Mon 05:29:04 AM 31.7508 -86.9964 57° Northeast 163 188 7,500  Climbing Atlanta Center
Mon 05:30:04 AM 31.7750 -86.9508 58° Northeast 163 188 7,400  Descending Atlanta Center
Mon 05:31:04 AM 31.7969 -86.9003 63° Northeast 163 188 7,500 -50 Climbing Atlanta Center
Mon 05:32:04 AM 31.8231 -86.8544 56° Northeast 163 188 7,300 -50 Descending Atlanta Center
Mon 05:33:04 AM 31.8472 -86.8064 59° Northeast 163 188 7,400 50 Climbing Atlanta Center
Mon 05:34:04 AM 31.8711 -86.7631 57° Northeast 163 188 7,400 50 Level Atlanta Center
Mon 05:35:04 AM 31.8950 -86.7175 58° Northeast 163 188 7,500 50 Climbing Atlanta Center
Mon 05:36:04 AM 31.9192 -86.6667 61° Northeast 163 188 7,500  Level Atlanta Center
Mon 05:37:04 AM 31.9450 -86.6233 55° Northeast 163 188 7,500  Level Atlanta Center
Mon 05:38:04 AM 31.9731 -86.5778 54° Northeast 163 188 7,500 50 Level Atlanta Center
Mon 05:39:04 AM 32.0011 -86.5344 53° Northeast 163 188 7,600  Climbing Atlanta Center
Mon 05:40:04 AM 32.0353 -86.4936 45° Northeast 163 188 7,500 -50 Descending Atlanta Center
Mon 05:41:04 AM 32.0633 -86.4506 52° Northeast 168 193 7,500 50 Level Atlanta Center
Mon 05:42:04 AM 32.0914 -86.4044 54° Northeast 173 199 7,600 50 Climbing Atlanta Center
Mon 05:43:04 AM 32.1153 -86.3561 60° Northeast 173 199 7,600  Level Atlanta Center
Mon 05:44:04 AM 32.1392 -86.3053 61° Northeast 168 193 7,600  Level Atlanta Center
Mon 05:45:04 AM 32.1628 -86.2592 59° Northeast 168 193 7,600  Level Atlanta Center
Mon 05:46:04 AM 32.1908 -86.2133 54° Northeast 168 193 7,600 -50 Level Atlanta Center
Mon 05:47:04 AM 32.2206 -86.1772 46° Northeast 168 193 7,500 -50 Descending Atlanta Center
Mon 05:48:04 AM 32.2422 -86.1361 58° Northeast 168 193 7,500 50 Level Atlanta Center
Mon 05:49:04 AM 32.2725 -86.0803 57° Northeast 144 166 7,600 100 Climbing Atlanta Center
Mon 05:50:04 AM 32.2981 -86.0367 55° Northeast 155 178 7,700 50 Climbing Atlanta Center
Mon 05:51:04 AM 32.3239 -85.9906 56° Northeast 155 178 7,700  Level Atlanta Center
Mon 05:52:04 AM 32.3497 -85.9444 56° Northeast 161 185 7,700 -50 Level Atlanta Center
Mon 05:53:04 AM 32.3797 -85.9006 51° Northeast 166 191 7,600 -200 Descending Atlanta Center
Mon 05:54:04 AM 32.4156 -85.8644 40° Northeast 166 191 7,300 -500 Descending Atlanta Center
Mon 05:55:04 AM 32.4433 -85.8183 54° Northeast 166 191 6,600 -850 Descending Atlanta Center
Mon 05:56:04 AM 32.4733 -85.7697 54° Northeast 166 191 5,600 -950 Descending Atlanta Center
Mon 05:57:04 AM 32.4992 -85.7233 57° Northeast 171 197 4,700 -900 Descending Atlanta Center
Mon 05:58:04 AM 32.5289 -85.6747 54° Northeast 171 197 3,800 -950 Descending Atlanta Center
Mon 05:59:04 AM 32.5442 -85.6233 71° East 164 189 2,800 -1,000 Descending Atlanta Center

Login

Don't have an account? Register now (free) for customized features, flight alerts, and more!